createdAt,value
2023-02-21T00:00:11.298Z,4.96
2023-02-21T00:03:21.796Z,4.99
2023-02-21T00:06:08.925Z,5.00
2023-02-21T00:08:56.184Z,5.01
2023-02-21T00:11:43.133Z,5.00
2023-02-21T00:14:29.827Z,5.00
2023-02-21T00:17:16.512Z,4.99
2023-02-21T00:20:03.381Z,5.01
2023-02-21T00:22:50.268Z,5.01
2023-02-21T00:25:36.773Z,5.01
2023-02-21T00:28:23.514Z,5.03
2023-02-21T00:31:10.153Z,5.04
2023-02-21T00:33:57.391Z,5.03
2023-02-21T00:36:44.251Z,5.04
2023-02-21T00:39:30.869Z,5.04
2023-02-21T00:42:17.750Z,5.04
2023-02-21T00:45:04.564Z,5.03
2023-02-21T00:47:51.175Z,5.03
2023-02-21T00:50:38.108Z,5.04
2023-02-21T00:53:24.959Z,5.06
2023-02-21T00:56:11.675Z,5.12
2023-02-21T00:58:58.410Z,5.15
2023-02-21T01:01:45.527Z,5.16
2023-02-21T01:04:32.412Z,5.20
2023-02-21T01:07:19.208Z,5.22
2023-02-21T01:10:06.022Z,5.23
2023-02-21T01:12:52.917Z,5.25
2023-02-21T01:15:40.064Z,5.28
2023-02-21T01:18:26.963Z,5.29
2023-02-21T01:21:14.121Z,5.28
2023-02-21T01:24:01.385Z,5.28
2023-02-21T01:26:48.722Z,5.26
2023-02-21T01:29:37.668Z,5.25
2023-02-21T01:32:24.587Z,5.23
2023-02-21T01:35:11.405Z,5.18
2023-02-21T01:38:00.669Z,5.14
2023-02-21T01:40:47.315Z,5.14
2023-02-21T01:43:44.126Z,5.14
2023-02-21T01:46:38.984Z,5.16
2023-02-21T01:49:35.812Z,5.18
2023-02-21T01:52:23.982Z,5.23
2023-02-21T01:55:13.809Z,5.30
2023-02-21T01:58:04.797Z,5.38
2023-02-21T02:00:52.196Z,5.48
2023-02-21T02:03:40.534Z,5.59
2023-02-21T02:06:33.800Z,5.75
2023-02-21T02:09:40.915Z,5.87
2023-02-21T02:12:35.952Z,6.11
2023-02-21T02:15:22.511Z,6.28
2023-02-21T02:18:09.177Z,6.48
2023-02-21T02:21:15.420Z,6.61
2023-02-21T02:24:15.574Z,6.70
2023-02-21T02:27:11.707Z,6.76
2023-02-21T02:30:11.729Z,6.80
2023-02-21T02:33:22.184Z,6.85
2023-02-21T02:36:13.088Z,6.86
2023-02-21T02:39:11.586Z,6.86
2023-02-21T02:41:56.568Z,6.82
2023-02-21T02:44:40.358Z,6.81
2023-02-21T02:47:15.059Z,6.81
2023-02-21T02:49:46.287Z,6.82
2023-02-21T02:52:14.383Z,6.82
2023-02-21T02:54:42.494Z,6.81
2023-02-21T02:57:13.368Z,6.80
2023-02-21T02:59:46.989Z,6.78
2023-02-21T03:02:43.982Z,6.79
2023-02-21T03:05:21.137Z,6.79
2023-02-21T03:08:09.004Z,6.81
2023-02-21T03:11:06.309Z,6.78
2023-02-21T03:14:06.288Z,6.71
2023-02-21T03:17:00.449Z,6.65
2023-02-21T03:19:39.116Z,6.58
2023-02-21T03:22:16.186Z,6.52
2023-02-21T03:24:48.571Z,6.45
2023-02-21T03:27:20.114Z,6.40
2023-02-21T03:30:03.148Z,6.35
2023-02-21T03:32:51.864Z,6.30
2023-02-21T03:35:22.206Z,6.22
2023-02-21T03:37:53.543Z,6.17
2023-02-21T03:40:33.674Z,6.15
2023-02-21T03:43:07.392Z,6.12
2023-02-21T03:45:45.413Z,6.12
2023-02-21T03:48:31.080Z,6.09
2023-02-21T03:51:03.720Z,6.05
2023-02-21T03:53:36.256Z,6.04
2023-02-21T03:56:05.506Z,6.00
2023-02-21T03:58:47.995Z,5.96
2023-02-21T04:01:16.803Z,5.91
2023-02-21T04:03:45.201Z,5.89
2023-02-21T04:06:13.384Z,5.91
2023-02-21T04:08:42.025Z,6.01
2023-02-21T04:11:10.318Z,6.11
2023-02-21T04:13:38.463Z,6.14
2023-02-21T04:16:07.000Z,6.14
2023-02-21T04:18:37.869Z,6.14
2023-02-21T04:21:08.367Z,6.13
2023-02-21T04:23:36.788Z,6.20
2023-02-21T04:26:05.914Z,6.27
2023-02-21T04:28:40.772Z,6.30
2023-02-21T04:31:09.239Z,6.29
2023-02-21T04:33:37.657Z,6.28
2023-02-21T04:36:06.428Z,6.31
2023-02-21T04:38:41.516Z,6.35
2023-02-21T04:41:09.683Z,6.39
2023-02-21T04:43:38.496Z,6.42
2023-02-21T04:46:07.307Z,6.44
2023-02-21T04:48:35.489Z,6.48
2023-02-21T04:51:15.105Z,6.52
2023-02-21T04:53:46.839Z,6.55
2023-02-21T04:56:15.966Z,6.54
2023-02-21T04:58:45.606Z,6.58
2023-02-21T05:01:16.537Z,6.61
2023-02-21T05:03:45.207Z,6.65
2023-02-21T05:06:25.404Z,6.72
2023-02-21T05:08:53.596Z,6.77
2023-02-21T05:11:23.151Z,6.81
2023-02-21T05:13:51.616Z,6.81
2023-02-21T05:16:20.666Z,6.84
2023-02-21T05:18:49.401Z,6.87
2023-02-21T05:21:19.338Z,6.92
2023-02-21T05:23:56.857Z,7.00
2023-02-21T05:26:31.484Z,7.05
2023-02-21T05:28:59.876Z,7.13
2023-02-21T05:31:28.614Z,7.16
2023-02-21T05:33:58.077Z,7.22
2023-02-21T05:36:27.014Z,7.28
2023-02-21T05:38:56.216Z,7.29
2023-02-21T05:41:24.651Z,7.30
2023-02-21T05:43:53.768Z,7.33
2023-02-21T05:46:29.449Z,7.35
2023-02-21T05:48:59.877Z,7.42
2023-02-21T05:51:34.357Z,7.50
2023-02-21T05:54:02.557Z,7.56
2023-02-21T05:56:31.065Z,7.61
2023-02-21T05:58:59.190Z,7.64
2023-02-21T06:01:27.334Z,7.74
2023-02-21T06:03:55.470Z,7.95
2023-02-21T06:06:23.734Z,8.08
2023-02-21T06:08:52.064Z,8.10
2023-02-21T06:11:26.242Z,8.07
2023-02-21T06:13:57.198Z,8.06
2023-02-21T06:16:26.498Z,8.04
2023-02-21T06:18:57.036Z,8.03
2023-02-21T06:21:25.193Z,8.01
2023-02-21T06:23:53.468Z,7.99
2023-02-21T06:26:23.032Z,7.99
2023-02-21T06:28:51.660Z,8.00
2023-02-21T06:31:21.344Z,8.00
2023-02-21T06:33:50.835Z,8.04
2023-02-21T06:36:23.960Z,8.09
2023-02-21T06:38:55.100Z,8.14
2023-02-21T06:41:28.405Z,8.20
2023-02-21T06:43:58.399Z,8.26
2023-02-21T06:46:30.117Z,8.33
2023-02-21T06:48:58.942Z,8.38
2023-02-21T06:51:30.138Z,8.43
2023-02-21T06:53:58.647Z,8.48
2023-02-21T06:56:27.271Z,8.53
2023-02-21T06:58:55.627Z,8.61
2023-02-21T07:01:28.058Z,8.66
2023-02-21T07:03:58.344Z,8.72
2023-02-21T07:06:29.448Z,8.77
2023-02-21T07:08:57.896Z,8.83
2023-02-21T07:11:26.042Z,8.91
2023-02-21T07:13:56.932Z,8.97
2023-02-21T07:16:26.806Z,9.02
2023-02-21T07:18:55.155Z,9.05
2023-02-21T07:21:23.642Z,9.11
2023-02-21T07:23:51.714Z,9.15
2023-02-21T07:26:20.276Z,9.19
2023-02-21T07:28:49.541Z,9.24
2023-02-21T07:31:19.598Z,9.28
2023-02-21T07:33:48.209Z,9.31
2023-02-21T07:36:16.922Z,9.34
2023-02-21T07:38:45.086Z,9.36
2023-02-21T07:41:15.816Z,9.40
2023-02-21T07:43:44.296Z,9.44
2023-02-21T07:46:15.087Z,9.49
2023-02-21T07:48:43.374Z,9.54
2023-02-21T07:51:11.579Z,9.58
2023-02-21T07:53:40.861Z,9.61
2023-02-21T07:56:09.464Z,9.64
2023-02-21T07:58:37.724Z,9.67
2023-02-21T08:01:07.140Z,9.71
2023-02-21T08:03:35.833Z,9.75
2023-02-21T08:06:05.161Z,9.79
2023-02-21T08:08:33.412Z,9.83
2023-02-21T08:11:02.014Z,9.87
2023-02-21T08:13:30.159Z,9.90
2023-02-21T08:15:58.313Z,9.92
2023-02-21T08:18:26.576Z,9.93
2023-02-21T08:20:57.043Z,9.92
2023-02-21T08:23:25.213Z,9.94
2023-02-21T08:25:53.379Z,9.94
2023-02-21T08:28:21.522Z,9.94
2023-02-21T08:30:49.692Z,9.92
2023-02-21T08:33:17.810Z,9.89
2023-02-21T08:35:46.253Z,9.86
2023-02-21T08:38:14.549Z,9.83
2023-02-21T08:40:42.704Z,9.80
2023-02-21T08:43:11.187Z,9.78
2023-02-21T08:45:39.324Z,9.77
2023-02-21T08:48:07.439Z,9.75
2023-02-21T08:50:35.584Z,9.74
2023-02-21T08:53:03.802Z,9.72
2023-02-21T08:55:31.883Z,9.71
2023-02-21T08:58:00.040Z,9.73
2023-02-21T09:00:28.501Z,9.75
2023-02-21T09:03:02.292Z,9.80
2023-02-21T09:05:32.031Z,9.84
2023-02-21T09:08:02.001Z,9.87
2023-02-21T09:10:36.048Z,9.92
2023-02-21T09:13:05.356Z,10.01
2023-02-21T09:15:34.042Z,10.09
2023-02-21T09:18:02.205Z,10.16
2023-02-21T09:20:30.336Z,10.24
2023-02-21T09:22:58.465Z,10.31
2023-02-21T09:25:27.012Z,10.39
2023-02-21T09:27:55.277Z,10.46
2023-02-21T09:30:27.134Z,10.52
2023-02-21T09:32:58.358Z,10.60
2023-02-21T09:35:26.507Z,10.68
2023-02-21T09:37:54.608Z,10.77
2023-02-21T09:40:51.574Z,10.82
2023-02-21T09:43:31.750Z,10.88
2023-02-21T09:46:07.569Z,10.94
2023-02-21T09:48:35.743Z,11.02
2023-02-21T09:51:09.086Z,11.07
2023-02-21T09:53:42.060Z,11.13
2023-02-21T09:56:34.210Z,11.17
2023-02-21T09:59:02.417Z,11.21
2023-02-21T10:02:16.186Z,11.25
2023-02-21T10:05:30.579Z,11.32
2023-02-21T10:08:15.063Z,11.39
2023-02-21T10:10:56.668Z,11.45
2023-02-21T10:13:53.077Z,11.51
2023-02-21T10:16:32.319Z,11.56
2023-02-21T10:19:31.396Z,11.58
2023-02-21T10:22:02.675Z,11.63
2023-02-21T10:24:31.211Z,11.65
2023-02-21T10:26:59.900Z,11.68
2023-02-21T10:29:47.162Z,11.70
2023-02-21T10:32:15.516Z,11.72
2023-02-21T10:34:47.466Z,11.76
2023-02-21T10:37:24.190Z,11.79
2023-02-21T10:39:59.229Z,11.85
2023-02-21T10:42:50.462Z,11.89
2023-02-21T10:45:20.167Z,11.90
2023-02-21T10:48:03.098Z,11.92
2023-02-21T10:51:04.574Z,11.94
2023-02-21T10:53:42.905Z,11.96
2023-02-21T10:56:20.005Z,11.98
2023-02-21T10:59:28.401Z,12.00
2023-02-21T11:01:58.128Z,12.04
2023-02-21T11:04:34.439Z,12.06
2023-02-21T11:07:13.338Z,12.10
2023-02-21T11:09:51.169Z,12.12
2023-02-21T11:12:31.166Z,12.17
2023-02-21T11:14:59.294Z,12.21
2023-02-21T11:17:29.025Z,12.24
2023-02-21T11:20:19.056Z,12.27
2023-02-21T11:22:49.878Z,12.31
2023-02-21T11:25:31.837Z,12.34
2023-02-21T11:28:06.649Z,12.38
2023-02-21T11:30:39.579Z,12.42
2023-02-21T11:33:09.148Z,12.48
2023-02-21T11:35:47.541Z,12.49
2023-02-21T11:38:36.000Z,12.49
2023-02-21T11:41:21.109Z,12.49
2023-02-21T11:43:55.362Z,12.49
2023-02-21T11:46:45.754Z,12.50
2023-02-21T11:49:32.718Z,12.51
2023-02-21T11:52:09.923Z,12.54
2023-02-21T11:54:39.977Z,12.56
2023-02-21T11:57:29.377Z,12.58
2023-02-21T12:00:41.065Z,12.61
2023-02-21T12:03:43.454Z,12.66
2023-02-21T12:06:26.945Z,12.70
2023-02-21T12:09:22.849Z,12.71
2023-02-21T12:12:11.653Z,12.71
2023-02-21T12:15:17.486Z,12.71
2023-02-21T12:18:22.924Z,12.71
2023-02-21T12:21:47.168Z,12.70
2023-02-21T12:24:30.938Z,12.63
2023-02-21T12:27:30.147Z,12.60
2023-02-21T12:30:10.657Z,12.59
2023-02-21T12:32:59.288Z,12.59
2023-02-21T12:36:17.254Z,12.58
2023-02-21T12:39:14.368Z,12.57
2023-02-21T12:42:22.551Z,12.56
2023-02-21T12:45:07.392Z,12.56
2023-02-21T12:48:12.551Z,12.54
2023-02-21T12:50:45.315Z,12.54
2023-02-21T12:53:24.376Z,12.54
2023-02-21T12:56:15.459Z,12.54
2023-02-21T12:59:14.027Z,12.55
2023-02-21T13:01:49.778Z,12.55
2023-02-21T13:05:01.577Z,12.55
2023-02-21T13:07:38.025Z,12.55
2023-02-21T13:10:28.117Z,12.54
2023-02-21T13:13:18.260Z,12.53
2023-02-21T13:15:49.186Z,12.52
2023-02-21T13:18:26.365Z,12.50
2023-02-21T13:20:58.922Z,12.45
2023-02-21T13:24:23.743Z,12.38
2023-02-21T13:27:41.918Z,12.30
2023-02-21T13:30:21.797Z,12.24
2023-02-21T13:32:54.338Z,12.19
2023-02-21T13:35:38.743Z,12.14
2023-02-21T13:38:11.214Z,12.12
2023-02-21T13:41:10.022Z,12.10
2023-02-21T13:43:48.023Z,12.08
2023-02-21T13:46:29.932Z,12.07
2023-02-21T13:49:56.208Z,12.04
2023-02-21T13:52:32.780Z,12.03
2023-02-21T13:55:15.805Z,12.04
2023-02-21T13:57:57.590Z,12.06
2023-02-21T14:00:25.755Z,12.11
2023-02-21T14:03:03.023Z,12.13
2023-02-21T14:05:47.205Z,12.13
2023-02-21T14:08:33.747Z,12.12
2023-02-21T14:11:05.047Z,12.12
2023-02-21T14:13:39.773Z,12.13
2023-02-21T14:16:07.906Z,12.17
2023-02-21T14:28:56.677Z,12.42
2023-02-21T14:31:56.402Z,12.47
2023-02-21T14:34:52.073Z,12.52
2023-02-21T14:37:41.059Z,12.55
2023-02-21T14:40:12.197Z,12.60
2023-02-21T14:43:05.330Z,12.61
2023-02-21T14:45:50.095Z,12.64
2023-02-21T14:48:53.238Z,12.66
2023-02-21T14:51:50.779Z,12.68
2023-02-21T14:54:37.435Z,12.69
2023-02-21T14:57:34.981Z,12.70
2023-02-21T15:00:50.600Z,12.72
2023-02-21T15:03:29.828Z,12.74
2023-02-21T15:06:14.135Z,12.74
2023-02-21T15:08:46.970Z,12.73
2023-02-21T15:11:37.704Z,12.71
2023-02-21T15:14:25.059Z,12.67
2023-02-21T15:17:14.315Z,12.64
2023-02-21T15:19:42.410Z,12.60
2023-02-21T15:22:25.213Z,12.56
2023-02-21T15:25:15.860Z,12.50
2023-02-21T15:27:47.984Z,12.43
2023-02-21T15:30:23.953Z,12.38
2023-02-21T15:33:01.479Z,12.33
2023-02-21T15:35:36.109Z,12.29
2023-02-21T15:38:15.307Z,12.25
2023-02-21T15:40:44.335Z,12.22
2023-02-21T15:43:37.339Z,12.19
2023-02-21T15:46:08.705Z,12.16
2023-02-21T15:48:37.192Z,12.12
2023-02-21T15:51:09.021Z,12.08
2023-02-21T15:53:37.282Z,12.06
2023-02-21T15:56:28.620Z,12.03
2023-02-21T15:59:25.313Z,12.01
2023-02-21T16:02:11.445Z,11.97
2023-02-21T16:04:43.744Z,11.94
2023-02-21T16:07:37.470Z,11.92
2023-02-21T16:10:14.404Z,11.90
2023-02-21T16:12:45.309Z,11.88
2023-02-21T16:15:13.365Z,11.86
2023-02-21T16:17:43.324Z,11.84
2023-02-21T16:20:26.010Z,11.81
2023-02-21T16:23:26.829Z,11.78
2023-02-21T16:26:20.733Z,11.75
2023-02-21T16:28:48.864Z,11.73
2023-02-21T16:31:26.978Z,11.71
2023-02-21T16:33:55.644Z,11.69
2023-02-21T16:36:31.942Z,11.67
2023-02-21T16:39:00.092Z,11.65
2023-02-21T16:41:28.217Z,11.63
2023-02-21T16:43:56.421Z,11.62
2023-02-21T16:46:29.848Z,11.61
2023-02-21T16:48:59.844Z,11.60
2023-02-21T16:51:33.668Z,11.57
2023-02-21T16:54:03.509Z,11.55
2023-02-21T16:56:31.756Z,11.53
2023-02-21T16:58:59.989Z,11.52
2023-02-21T17:01:32.813Z,11.50
2023-02-21T17:04:03.430Z,11.49
2023-02-21T17:06:32.250Z,11.46
2023-02-21T17:09:01.619Z,11.45
2023-02-21T17:11:29.872Z,11.44
2023-02-21T17:13:58.024Z,11.43
2023-02-21T17:16:26.193Z,11.42
2023-02-21T17:18:54.444Z,11.40
2023-02-21T17:21:22.628Z,11.39
2023-02-21T17:23:50.791Z,11.37
2023-02-21T17:26:18.960Z,11.36
2023-02-21T17:28:47.325Z,11.35
2023-02-21T17:31:18.951Z,11.34
2023-02-21T17:33:47.651Z,11.32
2023-02-21T17:36:24.320Z,11.30
2023-02-21T17:38:52.664Z,11.28
2023-02-21T17:41:21.975Z,11.24
2023-02-21T17:43:50.280Z,11.23
2023-02-21T17:46:21.204Z,11.22
2023-02-21T17:48:49.429Z,11.20
2023-02-21T17:51:24.669Z,11.19
2023-02-21T17:53:53.125Z,11.17
2023-02-21T17:56:27.066Z,11.15
2023-02-21T17:58:55.265Z,11.12
2023-02-21T18:01:23.500Z,11.08
2023-02-21T18:03:51.894Z,11.05
2023-02-21T18:06:21.087Z,11.01
2023-02-21T18:08:49.246Z,10.98
2023-02-21T18:11:18.380Z,10.96
2023-02-21T18:13:47.490Z,10.95
2023-02-21T18:16:16.092Z,10.94
2023-02-21T18:18:45.202Z,10.91
2023-02-21T18:21:13.721Z,10.88
2023-02-21T18:23:46.514Z,10.88
2023-02-21T18:26:15.848Z,10.87
2023-02-21T18:28:44.043Z,10.86
2023-02-21T18:31:17.741Z,10.85
2023-02-21T18:33:46.392Z,10.84
2023-02-21T18:36:14.542Z,10.84
2023-02-21T18:38:42.684Z,10.83
2023-02-21T18:41:17.688Z,10.82
2023-02-21T18:43:46.778Z,10.81
2023-02-21T18:46:19.229Z,10.80
2023-02-21T18:48:49.941Z,10.81
2023-02-21T18:51:20.207Z,10.80
2023-02-21T18:53:49.630Z,10.80
2023-02-21T18:56:20.033Z,10.80
2023-02-21T18:58:49.729Z,10.80
2023-02-21T19:01:21.873Z,10.80
2023-02-21T19:03:51.319Z,10.79
2023-02-21T19:06:21.391Z,10.78
2023-02-21T19:08:50.614Z,10.75
2023-02-21T19:11:18.735Z,10.72
2023-02-21T19:13:49.955Z,10.71
2023-02-21T19:16:19.859Z,10.71
2023-02-21T19:18:51.424Z,10.68
2023-02-21T19:21:19.706Z,10.68
2023-02-21T19:23:47.814Z,10.67
2023-02-21T19:26:16.371Z,10.66
2023-02-21T19:28:44.963Z,10.66
2023-02-21T19:31:17.468Z,10.66
2023-02-21T19:33:45.934Z,10.65
2023-02-21T19:36:14.142Z,10.65
2023-02-21T19:38:42.233Z,10.64
2023-02-21T19:41:10.413Z,10.63
2023-02-21T19:43:38.615Z,10.62
2023-02-21T19:46:06.771Z,10.60
2023-02-21T19:48:34.908Z,10.59
2023-02-21T19:51:03.400Z,10.59
2023-02-21T19:53:31.511Z,10.58
2023-02-21T19:55:59.616Z,10.57
2023-02-21T19:58:27.779Z,10.55
2023-02-21T20:00:55.903Z,10.53
2023-02-21T20:03:24.186Z,10.50
2023-02-21T20:05:52.448Z,10.49
2023-02-21T20:08:20.604Z,10.48
2023-02-21T20:10:48.768Z,10.46
2023-02-21T20:13:16.993Z,10.45
2023-02-21T20:15:45.207Z,10.44
2023-02-21T20:18:14.640Z,10.42
2023-02-21T20:20:43.016Z,10.40
2023-02-21T20:23:11.572Z,10.38
2023-02-21T20:25:39.676Z,10.35
2023-02-21T20:28:07.935Z,10.32
2023-02-21T20:30:36.965Z,10.30
2023-02-21T20:33:06.908Z,10.28
2023-02-21T20:35:35.174Z,10.27
2023-02-21T20:38:05.946Z,10.24
2023-02-21T20:40:34.673Z,10.22
2023-02-21T20:43:03.225Z,10.21
2023-02-21T20:45:31.370Z,10.20
2023-02-21T20:47:59.515Z,10.20
2023-02-21T20:50:27.720Z,10.20
2023-02-21T20:52:55.823Z,10.21
2023-02-21T20:55:25.263Z,10.21
2023-02-21T20:57:53.760Z,10.21
2023-02-21T21:00:23.708Z,10.20
2023-02-21T21:02:53.109Z,10.19
2023-02-21T21:05:21.592Z,10.18
2023-02-21T21:07:49.766Z,10.18
2023-02-21T21:10:19.108Z,10.18
2023-02-21T21:12:49.571Z,10.18
2023-02-21T21:15:20.135Z,10.18
2023-02-21T21:17:48.808Z,10.18
2023-02-21T21:20:22.215Z,10.16
2023-02-21T21:22:50.657Z,10.17
2023-02-21T21:25:22.761Z,10.15
2023-02-21T21:27:52.023Z,10.14
2023-02-21T21:30:22.940Z,10.14
2023-02-21T21:32:51.258Z,10.13
2023-02-21T21:35:20.845Z,10.12
2023-02-21T21:37:49.769Z,10.12
2023-02-21T21:40:18.030Z,10.11
2023-02-21T21:42:49.926Z,10.09
2023-02-21T21:45:27.381Z,10.08
2023-02-21T21:48:00.841Z,10.05
2023-02-21T21:50:28.986Z,10.04
2023-02-21T21:52:58.508Z,10.03
2023-02-21T21:55:30.076Z,10.01
2023-02-21T21:57:58.877Z,10.01
2023-02-21T22:00:30.802Z,10.00
2023-02-21T22:03:01.873Z,9.99
2023-02-21T22:05:32.281Z,9.98
2023-02-21T22:08:00.510Z,9.99
2023-02-21T22:10:29.780Z,10.06
2023-02-21T22:13:00.575Z,10.09
2023-02-21T22:15:30.106Z,10.11
2023-02-21T22:18:02.099Z,10.13
2023-02-21T22:20:31.226Z,10.15
2023-02-21T22:22:59.935Z,10.17
2023-02-21T22:25:30.604Z,10.20
2023-02-21T22:28:02.762Z,10.21
2023-02-21T22:30:31.690Z,10.24
2023-02-21T22:32:59.921Z,10.26
2023-02-21T22:35:28.627Z,10.27
2023-02-21T22:38:01.945Z,10.29
2023-02-21T22:40:35.522Z,10.32
2023-02-21T22:43:06.382Z,10.33
2023-02-21T22:45:36.003Z,10.35
2023-02-21T22:48:07.522Z,10.38
2023-02-21T22:50:37.669Z,10.38
2023-02-21T22:53:09.401Z,10.40
2023-02-21T22:55:37.923Z,10.42
2023-02-21T22:58:09.496Z,10.43
2023-02-21T23:00:38.301Z,10.44
2023-02-21T23:03:15.570Z,10.45
2023-02-21T23:05:47.604Z,10.43
2023-02-21T23:08:22.845Z,10.42
2023-02-21T23:10:51.650Z,10.40
2023-02-21T23:13:24.111Z,10.41
2023-02-21T23:15:55.966Z,10.42
2023-02-21T23:18:26.170Z,10.41
2023-02-21T23:20:57.994Z,10.40
2023-02-21T23:23:29.028Z,10.38
2023-02-21T23:25:59.512Z,10.39
2023-02-21T23:28:30.561Z,10.35
2023-02-21T23:30:58.720Z,10.32
2023-02-21T23:33:33.934Z,10.28
2023-02-21T23:36:04.811Z,10.25
2023-02-21T23:38:38.624Z,10.22
2023-02-21T23:41:10.762Z,10.20
2023-02-21T23:43:40.056Z,10.19
2023-02-21T23:46:09.171Z,10.19
2023-02-21T23:48:37.614Z,10.17
2023-02-21T23:51:08.214Z,10.16
2023-02-21T23:53:37.136Z,10.15
2023-02-21T23:56:05.896Z,10.16
2023-02-21T23:58:34.246Z,10.15
